sensor_id;sensor_type;location;lat;lon;timestamp;temperature;humidity
22173;DHT22;11252;50.596;17.648;2023-04-01T00:00:37;9.50;92.20
22173;DHT22;11252;50.596;17.648;2023-04-01T00:03:05;9.50;92.20
22173;DHT22;11252;50.596;17.648;2023-04-01T00:05:33;9.60;92.20
22173;DHT22;11252;50.596;17.648;2023-04-01T00:08:00;9.50;92.20
22173;DHT22;11252;50.596;17.648;2023-04-01T00:10:28;9.60;92.20
22173;DHT22;11252;50.596;17.648;2023-04-01T00:12:55;9.50;92.20
22173;DHT22;11252;50.596;17.648;2023-04-01T00:15:22;9.60;92.20
22173;DHT22;11252;50.596;17.648;2023-04-01T00:17:50;9.60;92.20
22173;DHT22;11252;50.596;17.648;2023-04-01T00:20:17;9.60;92.20
22173;DHT22;11252;50.596;17.648;2023-04-01T00:22:45;9.60;92.20
22173;DHT22;11252;50.596;17.648;2023-04-01T00:25:12;9.60;92.20
22173;DHT22;11252;50.596;17.648;2023-04-01T00:27:41;9.70;92.20
22173;DHT22;11252;50.596;17.648;2023-04-01T00:30:12;9.60;92.20
22173;DHT22;11252;50.596;17.648;2023-04-01T00:32:40;9.60;92.20
22173;DHT22;11252;50.596;17.648;2023-04-01T00:35:09;9.60;92.20
22173;DHT22;11252;50.596;17.648;2023-04-01T00:37:37;9.60;92.20
22173;DHT22;11252;50.596;17.648;2023-04-01T00:40:25;9.60;92.20
22173;DHT22;11252;50.596;17.648;2023-04-01T00:42:53;9.70;92.20
22173;DHT22;11252;50.596;17.648;2023-04-01T00:47:56;9.60;92.20
22173;DHT22;11252;50.596;17.648;2023-04-01T00:50:26;9.60;92.20
22173;DHT22;11252;50.596;17.648;2023-04-01T00:52:58;9.60;92.20
22173;DHT22;11252;50.596;17.648;2023-04-01T00:55:30;9.60;92.20
22173;DHT22;11252;50.596;17.648;2023-04-01T00:58:00;9.60;92.20
22173;DHT22;11252;50.596;17.648;2023-04-01T01:00:28;9.60;92.20
22173;DHT22;11252;50.596;17.648;2023-04-01T01:02:56;9.60;92.20
22173;DHT22;11252;50.596;17.648;2023-04-01T01:05:56;9.50;92.20
22173;DHT22;11252;50.596;17.648;2023-04-01T01:11:05;9.50;92.20
22173;DHT22;11252;50.596;17.648;2023-04-01T01:14:01;9.50;92.20
22173;DHT22;11252;50.596;17.648;2023-04-01T01:16:29;9.50;92.20
22173;DHT22;11252;50.596;17.648;2023-04-01T01:19:09;9.50;92.20
22173;DHT22;11252;50.596;17.648;2023-04-01T01:22:01;9.40;92.20
22173;DHT22;11252;50.596;17.648;2023-04-01T01:24:47;9.30;92.20
22173;DHT22;11252;50.596;17.648;2023-04-01T01:27:20;9.30;92.20
22173;DHT22;11252;50.596;17.648;2023-04-01T01:30:16;9.30;92.20
22173;DHT22;11252;50.596;17.648;2023-04-01T01:36:03;9.20;92.20
22173;DHT22;11252;50.596;17.648;2023-04-01T01:38:34;9.10;92.20
22173;DHT22;11252;50.596;17.648;2023-04-01T01:41:05;9.00;92.20
22173;DHT22;11252;50.596;17.648;2023-04-01T01:43:40;8.90;92.20
22173;DHT22;11252;50.596;17.648;2023-04-01T01:46:12;8.90;92.20
22173;DHT22;11252;50.596;17.648;2023-04-01T01:48:42;9.00;92.20
22173;DHT22;11252;50.596;17.648;2023-04-01T01:51:11;9.00;92.20
22173;DHT22;11252;50.596;17.648;2023-04-01T01:53:39;9.10;92.20
22173;DHT22;11252;50.596;17.648;2023-04-01T01:56:06;9.20;92.20
22173;DHT22;11252;50.596;17.648;2023-04-01T01:58:43;9.20;92.20
22173;DHT22;11252;50.596;17.648;2023-04-01T02:01:17;9.10;92.20
22173;DHT22;11252;50.596;17.648;2023-04-01T02:03:47;9.20;92.20
22173;DHT22;11252;50.596;17.648;2023-04-01T02:06:17;9.20;92.20
22173;DHT22;11252;50.596;17.648;2023-04-01T02:09:02;9.20;92.20
22173;DHT22;11252;50.596;17.648;2023-04-01T02:14:26;9.20;92.20
22173;DHT22;11252;50.596;17.648;2023-04-01T02:17:02;9.20;92.20
22173;DHT22;11252;50.596;17.648;2023-04-01T02:20:16;9.10;92.20
22173;DHT22;11252;50.596;17.648;2023-04-01T02:22:26;9.10;92.20
22173;DHT22;11252;50.596;17.648;2023-04-01T02:24:58;9.10;92.20
22173;DHT22;11252;50.596;17.648;2023-04-01T02:27:28;9.10;92.20
22173;DHT22;11252;50.596;17.648;2023-04-01T02:29:56;9.20;92.20
22173;DHT22;11252;50.596;17.648;2023-04-01T02:32:24;9.20;92.20
22173;DHT22;11252;50.596;17.648;2023-04-01T02:34:53;9.30;92.20
22173;DHT22;11252;50.596;17.648;2023-04-01T02:37:21;9.30;92.20
22173;DHT22;11252;50.596;17.648;2023-04-01T02:39:48;9.20;92.20
22173;DHT22;11252;50.596;17.648;2023-04-01T02:42:15;9.20;92.20
22173;DHT22;11252;50.596;17.648;2023-04-01T02:44:43;9.20;92.20
22173;DHT22;11252;50.596;17.648;2023-04-01T02:47:10;9.20;92.20
22173;DHT22;11252;50.596;17.648;2023-04-01T02:49:37;9.20;92.20
22173;DHT22;11252;50.596;17.648;2023-04-01T02:52:05;9.10;92.20
22173;DHT22;11252;50.596;17.648;2023-04-01T02:54:32;9.10;92.20
22173;DHT22;11252;50.596;17.648;2023-04-01T02:56:59;9.10;92.20
22173;DHT22;11252;50.596;17.648;2023-04-01T02:59:27;9.20;92.20
22173;DHT22;11252;50.596;17.648;2023-04-01T03:01:54;9.20;92.20
22173;DHT22;11252;50.596;17.648;2023-04-01T03:04:22;9.10;92.20
22173;DHT22;11252;50.596;17.648;2023-04-01T03:06:49;9.00;92.20
22173;DHT22;11252;50.596;17.648;2023-04-01T03:09:18;9.00;92.20
22173;DHT22;11252;50.596;17.648;2023-04-01T03:11:45;9.00;92.20
22173;DHT22;11252;50.596;17.648;2023-04-01T03:14:12;9.00;92.20
22173;DHT22;11252;50.596;17.648;2023-04-01T03:16:40;9.10;92.20
22173;DHT22;11252;50.596;17.648;2023-04-01T03:19:08;9.00;92.20
22173;DHT22;11252;50.596;17.648;2023-04-01T03:21:35;9.10;92.20
22173;DHT22;11252;50.596;17.648;2023-04-01T03:24:02;9.10;92.20
22173;DHT22;11252;50.596;17.648;2023-04-01T03:26:30;9.10;92.20
22173;DHT22;11252;50.596;17.648;2023-04-01T03:28:57;9.10;92.20
22173;DHT22;11252;50.596;17.648;2023-04-01T03:31:25;9.00;92.20
22173;DHT22;11252;50.596;17.648;2023-04-01T03:33:53;9.00;92.20
22173;DHT22;11252;50.596;17.648;2023-04-01T03:36:20;9.00;92.20
22173;DHT22;11252;50.596;17.648;2023-04-01T03:38:48;9.00;92.20
22173;DHT22;11252;50.596;17.648;2023-04-01T03:41:16;8.90;92.20
22173;DHT22;11252;50.596;17.648;2023-04-01T03:43:44;8.90;92.20
22173;DHT22;11252;50.596;17.648;2023-04-01T03:46:19;8.90;92.20
22173;DHT22;11252;50.596;17.648;2023-04-01T03:48:47;8.90;92.20
22173;DHT22;11252;50.596;17.648;2023-04-01T03:51:15;8.80;92.20
22173;DHT22;11252;50.596;17.648;2023-04-01T03:53:42;8.90;92.20
22173;DHT22;11252;50.596;17.648;2023-04-01T03:56:10;8.80;92.20
22173;DHT22;11252;50.596;17.648;2023-04-01T03:58:38;8.80;92.20
22173;DHT22;11252;50.596;17.648;2023-04-01T04:01:20;8.80;92.20
22173;DHT22;11252;50.596;17.648;2023-04-01T04:03:49;8.80;92.20
22173;DHT22;11252;50.596;17.648;2023-04-01T04:06:18;8.80;92.20
22173;DHT22;11252;50.596;17.648;2023-04-01T04:08:46;8.80;92.20
22173;DHT22;11252;50.596;17.648;2023-04-01T04:11:13;8.80;92.20
22173;DHT22;11252;50.596;17.648;2023-04-01T04:13:41;8.90;92.20
22173;DHT22;11252;50.596;17.648;2023-04-01T04:16:09;8.90;92.20
22173;DHT22;11252;50.596;17.648;2023-04-01T04:18:37;8.90;92.20
22173;DHT22;11252;50.596;17.648;2023-04-01T04:21:05;8.90;92.20
22173;DHT22;11252;50.596;17.648;2023-04-01T04:23:33;8.90;92.20
22173;DHT22;11252;50.596;17.648;2023-04-01T04:26:04;8.90;92.20
22173;DHT22;11252;50.596;17.648;2023-04-01T04:28:32;8.90;92.20
22173;DHT22;11252;50.596;17.648;2023-04-01T04:31:00;8.90;92.20
22173;DHT22;11252;50.596;17.648;2023-04-01T04:33:28;8.80;92.20
22173;DHT22;11252;50.596;17.648;2023-04-01T04:35:58;8.80;92.20
22173;DHT22;11252;50.596;17.648;2023-04-01T04:38:26;8.80;92.20
22173;DHT22;11252;50.596;17.648;2023-04-01T04:40:54;8.80;92.20
22173;DHT22;11252;50.596;17.648;2023-04-01T04:43:22;8.90;92.20
22173;DHT22;11252;50.596;17.648;2023-04-01T04:45:49;8.90;92.20
22173;DHT22;11252;50.596;17.648;2023-04-01T04:48:17;8.90;92.20
22173;DHT22;11252;50.596;17.648;2023-04-01T04:50:50;8.90;92.20
22173;DHT22;11252;50.596;17.648;2023-04-01T04:53:18;8.90;92.20
22173;DHT22;11252;50.596;17.648;2023-04-01T04:55:50;8.90;92.20
22173;DHT22;11252;50.596;17.648;2023-04-01T04:58:17;9.00;92.20
22173;DHT22;11252;50.596;17.648;2023-04-01T05:00:46;8.90;92.20
22173;DHT22;11252;50.596;17.648;2023-04-01T05:03:15;8.90;92.20
22173;DHT22;11252;50.596;17.648;2023-04-01T05:05:52;8.90;92.20
22173;DHT22;11252;50.596;17.648;2023-04-01T05:08:21;8.90;92.20
22173;DHT22;11252;50.596;17.648;2023-04-01T05:10:48;8.90;92.20
22173;DHT22;11252;50.596;17.648;2023-04-01T05:13:16;8.90;92.20
22173;DHT22;11252;50.596;17.648;2023-04-01T05:15:43;8.90;92.20
22173;DHT22;11252;50.596;17.648;2023-04-01T05:18:11;8.90;92.20
22173;DHT22;11252;50.596;17.648;2023-04-01T05:20:39;8.90;92.20
22173;DHT22;11252;50.596;17.648;2023-04-01T05:23:06;8.90;92.20
22173;DHT22;11252;50.596;17.648;2023-04-01T05:25:33;8.90;92.20
22173;DHT22;11252;50.596;17.648;2023-04-01T05:28:01;8.90;92.20
22173;DHT22;11252;50.596;17.648;2023-04-01T05:30:30;8.90;92.20
22173;DHT22;11252;50.596;17.648;2023-04-01T05:32:57;8.90;92.20
22173;DHT22;11252;50.596;17.648;2023-04-01T05:35:24;8.90;92.20
22173;DHT22;11252;50.596;17.648;2023-04-01T05:37:52;8.90;92.20
22173;DHT22;11252;50.596;17.648;2023-04-01T05:40:19;8.90;92.20
22173;DHT22;11252;50.596;17.648;2023-04-01T05:42:47;8.90;92.20
22173;DHT22;11252;50.596;17.648;2023-04-01T05:45:15;8.90;92.20
22173;DHT22;11252;50.596;17.648;2023-04-01T05:47:43;8.90;92.20
22173;DHT22;11252;50.596;17.648;2023-04-01T05:50:10;8.90;92.20
22173;DHT22;11252;50.596;17.648;2023-04-01T05:52:38;8.90;92.20
22173;DHT22;11252;50.596;17.648;2023-04-01T05:55:06;8.90;92.20
22173;DHT22;11252;50.596;17.648;2023-04-01T05:57:34;8.80;92.20
22173;DHT22;11252;50.596;17.648;2023-04-01T06:00:02;8.80;92.20
22173;DHT22;11252;50.596;17.648;2023-04-01T06:02:30;8.90;92.20
22173;DHT22;11252;50.596;17.648;2023-04-01T06:05:23;9.00;92.20
22173;DHT22;11252;50.596;17.648;2023-04-01T06:07:57;9.00;92.20
22173;DHT22;11252;50.596;17.648;2023-04-01T06:10:42;9.00;92.20
22173;DHT22;11252;50.596;17.648;2023-04-01T06:16:20;9.00;92.20
22173;DHT22;11252;50.596;17.648;2023-04-01T06:21:59;9.00;92.20
22173;DHT22;11252;50.596;17.648;2023-04-01T06:33:17;9.20;92.20
